CST,Max TemperatureF,Mean TemperatureF,Min TemperatureF,Max Dew PointF,MeanDew PointF,Min DewpointF,Max Humidity, Mean Humidity, Min Humidity, Max Sea Level PressureIn, Mean Sea Level PressureIn, Min Sea Level PressureIn, Max VisibilityMiles, Mean VisibilityMiles, Min VisibilityMiles, Max Wind SpeedMPH, Mean Wind SpeedMPH, Max Gust SpeedMPH,PrecipitationIn, CloudCover, Events, WindDirDegrees
2012-12-1,59,43,27,56,43,25,94,89,81,30.14,29.98,29.87,10,4,0,17,7,20,0.00,8,Fog-Snow,129
2012-12-2,62,54,46,54,49,45,94,85,58,30.07,29.97,29.86,10,4,0,9,5,,0.00,5,Fog,209
2012-12-3,67,56,46,61,54,43,95,88,77,30.02,29.86,29.75,10,6,0,24,12,31,0.07,7,Fog-Rain,166
2012-12-4,56,44,33,42,33,26,84,65,33,30.34,30.14,29.96,10,10,10,16,8,25,0.07,0,,260
2012-12-5,38,30,21,30,22,16,86,70,45,30.45,30.34,30.18,10,10,10,10,6,,0.00,0,,63
2012-12-6,46,40,33,40,35,30,87,79,67,30.18,30.00,29.89,10,10,10,18,8,23,0.00,4,,169
2012-12-7,43,40,36,39,32,28,87,75,56,29.98,29.95,29.92,10,10,10,12,5,,0.00,7,,4
2012-12-8,38,34,31,33,31,28,93,87,76,30.10,30.02,29.93,10,9,4,13,7,,0.00,6,Rain-Snow,23
2012-12-9,39,36,33,37,34,32,94,92,84,30.07,29.87,29.74,10,4,1,18,9,23,0.14,8,Rain-Snow,45
2012-12-10,33,30,26,32,28,23,93,88,84,29.96,29.84,29.75,10,9,4,18,11,24,0.01,8,,266
2012-12-11,33,26,18,27,22,16,91,79,67,30.12,30.00,29.95,10,10,10,18,10,23,0.00,3,,199
2012-12-12,44,34,25,30,26,21,84,71,48,30.23,30.18,30.12,10,10,10,22,12,30,0.00,1,,170
2012-12-13,47,40,32,28,27,24,80,65,39,30.21,30.14,30.08,10,10,10,20,14,28,0.00,0,,182
2012-12-14,50,36,23,38,30,21,91,76,48,30.18,30.10,29.97,10,10,7,15,4,,0.00,1,,118
2012-12-15,48,44,41,46,42,36,93,90,73,29.97,29.68,29.53,10,6,2,23,11,29,0.34,8,Rain,154
2012-12-16,47,42,35,45,37,33,93,89,84,29.75,29.66,29.56,10,8,3,15,11,23,0.01,8,Rain,246
2012-12-17,36,34,31,33,30,28,93,88,83,29.76,29.73,29.70,10,8,4,8,4,,0.00,8,,291
2012-12-18,38,34,31,36,31,28,93,90,85,29.88,29.70,29.56,7,4,2,18,6,25,0.00,8,,124
2012-12-19,38,36,33,33,31,30,93,88,81,30.05,29.97,29.76,7,5,0,20,6,25,0.00,7,Snow,28
2012-12-20,36,32,27,35,31,23,94,91,84,29.74,29.42,29.17,5,2,0,32,18,43,1.06,8,Rain-Snow,340
2012-12-21,27,21,14,23,14,9,86,77,70,30.21,30.03,29.67,10,10,4,25,19,40,0.00,1,,282
2012-12-22,26,16,7,21,13,4,92,83,75,30.22,30.11,29.95,10,9,2,9,3,,0.00,0,,179
2012-12-23,25,18,11,22,17,8,91,88,86,30.06,30.00,29.94,10,9,0,16,4,18,0.00,5,Fog,12
2012-12-24,30,23,16,26,21,13,88,85,81,30.16,29.98,29.90,10,10,7,10,7,,0.00,7,Snow,352
2012-12-25,21,14,8,17,13,5,89,81,74,30.36,30.28,30.16,10,10,10,13,7,17,0.00,2,,339
2012-12-26,28,24,21,23,20,17,86,81,75,30.24,30.15,30.08,10,10,10,18,12,25,0.00,8,,347
2012-12-27,27,22,18,23,20,15,87,84,80,30.21,30.17,30.11,10,10,10,9,5,,0.00,8,,359
2012-12-28,32,29,26,29,26,23,92,89,85,30.11,30.00,29.91,10,6,2,9,4,,0.00,8,Snow,85
2012-12-29,28,20,13,27,19,10,92,85,80,30.22,30.04,29.90,10,8,2,20,10,26,0.00,6,Snow,275
2012-12-30,33,20,8,28,16,5,92,83,75,30.31,30.20,30.01,10,8,4,22,8,28,0.00,0,,192
2012-12-31,33,24,14,27,19,9,83,79,72,30.18,30.07,29.99,10,10,7,20,12,24,0.00,3,,269